sensor_id;sensor_type;location;lat;lon;timestamp;P1;durP1;ratioP1;P2;durP2;ratioP2
33553;SDS011;19885;42.208;24.952;2022-12-16T00:01:01;48.70;;;22.13;;
33553;SDS011;19885;42.208;24.952;2022-12-16T00:03:29;46.43;;;20.23;;
33553;SDS011;19885;42.208;24.952;2022-12-16T00:05:55;44.73;;;20.97;;
33553;SDS011;19885;42.208;24.952;2022-12-16T00:08:20;41.53;;;21.03;;
33553;SDS011;19885;42.208;24.952;2022-12-16T00:10:46;49.30;;;22.00;;
33553;SDS011;19885;42.208;24.952;2022-12-16T00:13:17;40.87;;;20.67;;
33553;SDS011;19885;42.208;24.952;2022-12-16T00:15:43;46.10;;;21.50;;
33553;SDS011;19885;42.208;24.952;2022-12-16T00:18:10;38.07;;;19.43;;
33553;SDS011;19885;42.208;24.952;2022-12-16T00:20:39;44.10;;;19.57;;
33553;SDS011;19885;42.208;24.952;2022-12-16T00:23:11;29.73;;;19.00;;
33553;SDS011;19885;42.208;24.952;2022-12-16T00:25:37;39.37;;;21.00;;
33553;SDS011;19885;42.208;24.952;2022-12-16T00:28:03;39.30;;;20.50;;
33553;SDS011;19885;42.208;24.952;2022-12-16T00:30:28;42.90;;;22.27;;
33553;SDS011;19885;42.208;24.952;2022-12-16T00:32:54;41.97;;;20.13;;
33553;SDS011;19885;42.208;24.952;2022-12-16T00:35:19;38.53;;;19.10;;
33553;SDS011;19885;42.208;24.952;2022-12-16T00:37:48;37.60;;;20.23;;
33553;SDS011;19885;42.208;24.952;2022-12-16T00:40:13;42.40;;;19.00;;
33553;SDS011;19885;42.208;24.952;2022-12-16T00:42:39;31.17;;;18.97;;
33553;SDS011;19885;42.208;24.952;2022-12-16T00:45:04;40.70;;;19.63;;
33553;SDS011;19885;42.208;24.952;2022-12-16T00:47:30;35.93;;;19.17;;
33553;SDS011;19885;42.208;24.952;2022-12-16T00:49:55;28.70;;;16.07;;
33553;SDS011;19885;42.208;24.952;2022-12-16T00:52:21;34.20;;;17.27;;
33553;SDS011;19885;42.208;24.952;2022-12-16T00:54:46;32.80;;;17.17;;
33553;SDS011;19885;42.208;24.952;2022-12-16T00:57:12;28.70;;;17.27;;
33553;SDS011;19885;42.208;24.952;2022-12-16T00:59:37;32.63;;;17.30;;
33553;SDS011;19885;42.208;24.952;2022-12-16T01:02:03;39.03;;;19.10;;
33553;SDS011;19885;42.208;24.952;2022-12-16T01:04:28;29.10;;;16.13;;
33553;SDS011;19885;42.208;24.952;2022-12-16T01:06:54;37.33;;;18.27;;
33553;SDS011;19885;42.208;24.952;2022-12-16T01:09:20;34.57;;;17.43;;
33553;SDS011;19885;42.208;24.952;2022-12-16T01:11:46;34.87;;;17.67;;
33553;SDS011;19885;42.208;24.952;2022-12-16T01:14:11;30.57;;;18.70;;
33553;SDS011;19885;42.208;24.952;2022-12-16T01:16:37;40.20;;;18.47;;
33553;SDS011;19885;42.208;24.952;2022-12-16T01:19:03;31.40;;;17.57;;
33553;SDS011;19885;42.208;24.952;2022-12-16T01:21:28;38.53;;;18.47;;
33553;SDS011;19885;42.208;24.952;2022-12-16T01:23:54;36.30;;;18.43;;
33553;SDS011;19885;42.208;24.952;2022-12-16T01:26:19;31.43;;;18.03;;
33553;SDS011;19885;42.208;24.952;2022-12-16T01:28:48;35.20;;;19.03;;
33553;SDS011;19885;42.208;24.952;2022-12-16T01:31:13;33.07;;;17.63;;
33553;SDS011;19885;42.208;24.952;2022-12-16T01:33:40;34.03;;;16.70;;
33553;SDS011;19885;42.208;24.952;2022-12-16T01:36:06;29.57;;;16.80;;
33553;SDS011;19885;42.208;24.952;2022-12-16T01:38:33;31.90;;;15.77;;
33553;SDS011;19885;42.208;24.952;2022-12-16T01:40:59;21.87;;;14.37;;
33553;SDS011;19885;42.208;24.952;2022-12-16T01:43:27;20.83;;;13.93;;
33553;SDS011;19885;42.208;24.952;2022-12-16T01:45:56;32.43;;;16.20;;
33553;SDS011;19885;42.208;24.952;2022-12-16T01:48:34;29.87;;;15.43;;
33553;SDS011;19885;42.208;24.952;2022-12-16T01:53:57;23.07;;;12.57;;
33553;SDS011;19885;42.208;24.952;2022-12-16T01:56:26;29.97;;;14.70;;
33553;SDS011;19885;42.208;24.952;2022-12-16T01:58:55;27.03;;;14.23;;
33553;SDS011;19885;42.208;24.952;2022-12-16T02:01:22;32.50;;;17.57;;
33553;SDS011;19885;42.208;24.952;2022-12-16T02:03:47;23.13;;;16.27;;
33553;SDS011;19885;42.208;24.952;2022-12-16T02:06:14;24.63;;;14.90;;
33553;SDS011;19885;42.208;24.952;2022-12-16T02:08:40;24.97;;;15.20;;
33553;SDS011;19885;42.208;24.952;2022-12-16T02:19:08;23.17;;;14.10;;
33553;SDS011;19885;42.208;24.952;2022-12-16T02:21:46;29.00;;;15.20;;
33553;SDS011;19885;42.208;24.952;2022-12-16T02:32:27;31.40;;;16.70;;
33553;SDS011;19885;42.208;24.952;2022-12-16T02:35:04;28.47;;;15.83;;
33553;SDS011;19885;42.208;24.952;2022-12-16T02:37:42;29.53;;;16.60;;
33553;SDS011;19885;42.208;24.952;2022-12-16T02:42:54;30.23;;;17.20;;
33553;SDS011;19885;42.208;24.952;2022-12-16T02:45:26;40.03;;;19.67;;
33553;SDS011;19885;42.208;24.952;2022-12-16T02:47:54;36.47;;;19.93;;
33553;SDS011;19885;42.208;24.952;2022-12-16T02:50:27;36.27;;;21.60;;
33553;SDS011;19885;42.208;24.952;2022-12-16T02:52:59;31.57;;;19.13;;
33553;SDS011;19885;42.208;24.952;2022-12-16T02:55:43;39.53;;;21.47;;
33553;SDS011;19885;42.208;24.952;2022-12-16T02:58:32;42.67;;;21.00;;
33553;SDS011;19885;42.208;24.952;2022-12-16T03:01:03;35.37;;;20.10;;
33553;SDS011;19885;42.208;24.952;2022-12-16T03:03:42;35.37;;;18.77;;
33553;SDS011;19885;42.208;24.952;2022-12-16T03:06:09;39.83;;;19.40;;
33553;SDS011;19885;42.208;24.952;2022-12-16T03:08:38;35.40;;;19.47;;
33553;SDS011;19885;42.208;24.952;2022-12-16T03:11:06;33.70;;;18.43;;
33553;SDS011;19885;42.208;24.952;2022-12-16T03:13:37;35.97;;;19.23;;
33553;SDS011;19885;42.208;24.952;2022-12-16T03:16:06;30.50;;;17.83;;
33553;SDS011;19885;42.208;24.952;2022-12-16T03:18:34;33.47;;;19.33;;
33553;SDS011;19885;42.208;24.952;2022-12-16T03:21:05;32.57;;;18.47;;
33553;SDS011;19885;42.208;24.952;2022-12-16T03:23:35;32.23;;;17.97;;
33553;SDS011;19885;42.208;24.952;2022-12-16T03:26:12;27.97;;;17.10;;
33553;SDS011;19885;42.208;24.952;2022-12-16T03:28:57;30.10;;;17.03;;
33553;SDS011;19885;42.208;24.952;2022-12-16T03:31:38;31.53;;;17.60;;
33553;SDS011;19885;42.208;24.952;2022-12-16T03:34:39;31.63;;;17.80;;
33553;SDS011;19885;42.208;24.952;2022-12-16T03:37:03;26.57;;;15.57;;
33553;SDS011;19885;42.208;24.952;2022-12-16T03:39:33;32.20;;;17.40;;
33553;SDS011;19885;42.208;24.952;2022-12-16T03:42:03;26.63;;;15.07;;
33553;SDS011;19885;42.208;24.952;2022-12-16T03:44:30;28.53;;;16.20;;
33553;SDS011;19885;42.208;24.952;2022-12-16T03:46:57;35.37;;;17.03;;
33553;SDS011;19885;42.208;24.952;2022-12-16T03:49:22;28.63;;;16.47;;
33553;SDS011;19885;42.208;24.952;2022-12-16T03:51:48;32.87;;;18.60;;
33553;SDS011;19885;42.208;24.952;2022-12-16T03:54:13;34.03;;;17.90;;
33553;SDS011;19885;42.208;24.952;2022-12-16T03:56:39;31.57;;;18.87;;
33553;SDS011;19885;42.208;24.952;2022-12-16T03:59:04;38.00;;;18.07;;
33553;SDS011;19885;42.208;24.952;2022-12-16T04:01:30;33.20;;;18.97;;
33553;SDS011;19885;42.208;24.952;2022-12-16T04:03:55;33.87;;;16.67;;
33553;SDS011;19885;42.208;24.952;2022-12-16T04:06:21;34.10;;;18.87;;
33553;SDS011;19885;42.208;24.952;2022-12-16T04:08:46;31.70;;;17.73;;
33553;SDS011;19885;42.208;24.952;2022-12-16T04:11:13;37.10;;;19.90;;
33553;SDS011;19885;42.208;24.952;2022-12-16T04:13:57;39.27;;;17.73;;
33553;SDS011;19885;42.208;24.952;2022-12-16T04:16:41;32.73;;;19.43;;
33553;SDS011;19885;42.208;24.952;2022-12-16T04:19:46;37.77;;;16.93;;
33553;SDS011;19885;42.208;24.952;2022-12-16T04:22:44;36.80;;;16.50;;
33553;SDS011;19885;42.208;24.952;2022-12-16T04:25:39;37.23;;;19.03;;
33553;SDS011;19885;42.208;24.952;2022-12-16T04:28:04;37.70;;;19.00;;
33553;SDS011;19885;42.208;24.952;2022-12-16T04:30:30;36.27;;;17.23;;
33553;SDS011;19885;42.208;24.952;2022-12-16T04:33:00;45.40;;;20.27;;
33553;SDS011;19885;42.208;24.952;2022-12-16T04:35:49;43.83;;;21.70;;
33553;SDS011;19885;42.208;24.952;2022-12-16T04:38:33;35.13;;;19.17;;
33553;SDS011;19885;42.208;24.952;2022-12-16T04:41:17;33.83;;;17.37;;
33553;SDS011;19885;42.208;24.952;2022-12-16T04:44:01;40.27;;;21.80;;
33553;SDS011;19885;42.208;24.952;2022-12-16T04:46:46;39.77;;;20.23;;
33553;SDS011;19885;42.208;24.952;2022-12-16T04:49:30;39.60;;;22.13;;
33553;SDS011;19885;42.208;24.952;2022-12-16T04:52:14;48.30;;;26.67;;
33553;SDS011;19885;42.208;24.952;2022-12-16T04:54:58;50.07;;;22.83;;
33553;SDS011;19885;42.208;24.952;2022-12-16T04:57:52;47.83;;;23.33;;
33553;SDS011;19885;42.208;24.952;2022-12-16T05:00:38;63.20;;;39.10;;
33553;SDS011;19885;42.208;24.952;2022-12-16T05:03:23;70.13;;;42.83;;
33553;SDS011;19885;42.208;24.952;2022-12-16T05:06:08;92.97;;;71.13;;
33553;SDS011;19885;42.208;24.952;2022-12-16T05:08:52;66.30;;;34.43;;
33553;SDS011;19885;42.208;24.952;2022-12-16T05:11:36;72.43;;;39.23;;
33553;SDS011;19885;42.208;24.952;2022-12-16T05:14:20;67.80;;;29.30;;
33553;SDS011;19885;42.208;24.952;2022-12-16T05:17:04;57.80;;;30.83;;
33553;SDS011;19885;42.208;24.952;2022-12-16T05:19:48;58.83;;;32.53;;
33553;SDS011;19885;42.208;24.952;2022-12-16T05:22:31;58.77;;;30.27;;
33553;SDS011;19885;42.208;24.952;2022-12-16T05:25:15;57.23;;;27.27;;
33553;SDS011;19885;42.208;24.952;2022-12-16T05:27:59;59.70;;;28.13;;
33553;SDS011;19885;42.208;24.952;2022-12-16T05:30:44;59.33;;;26.77;;
33553;SDS011;19885;42.208;24.952;2022-12-16T05:33:28;60.30;;;28.80;;
33553;SDS011;19885;42.208;24.952;2022-12-16T05:36:12;59.27;;;27.60;;
33553;SDS011;19885;42.208;24.952;2022-12-16T05:38:56;60.90;;;27.63;;
33553;SDS011;19885;42.208;24.952;2022-12-16T05:41:40;48.30;;;25.67;;
33553;SDS011;19885;42.208;24.952;2022-12-16T05:44:23;53.03;;;28.10;;
33553;SDS011;19885;42.208;24.952;2022-12-16T05:47:07;57.23;;;28.90;;
33553;SDS011;19885;42.208;24.952;2022-12-16T05:49:52;46.60;;;23.73;;
33553;SDS011;19885;42.208;24.952;2022-12-16T05:52:36;48.47;;;24.47;;
33553;SDS011;19885;42.208;24.952;2022-12-16T05:55:25;49.07;;;23.13;;
33553;SDS011;19885;42.208;24.952;2022-12-16T05:58:08;45.57;;;20.70;;
33553;SDS011;19885;42.208;24.952;2022-12-16T06:00:52;41.83;;;20.00;;
33553;SDS011;19885;42.208;24.952;2022-12-16T06:03:36;36.67;;;18.33;;
33553;SDS011;19885;42.208;24.952;2022-12-16T06:06:20;33.80;;;17.20;;
33553;SDS011;19885;42.208;24.952;2022-12-16T06:09:04;32.03;;;16.67;;
33553;SDS011;19885;42.208;24.952;2022-12-16T06:11:49;36.37;;;18.83;;
33553;SDS011;19885;42.208;24.952;2022-12-16T06:14:33;31.57;;;16.97;;
33553;SDS011;19885;42.208;24.952;2022-12-16T06:17:17;38.83;;;19.80;;
33553;SDS011;19885;42.208;24.952;2022-12-16T06:20:01;38.33;;;19.03;;
33553;SDS011;19885;42.208;24.952;2022-12-16T06:22:52;37.40;;;17.47;;
33553;SDS011;19885;42.208;24.952;2022-12-16T06:25:37;29.57;;;15.80;;
33553;SDS011;19885;42.208;24.952;2022-12-16T06:28:20;25.37;;;15.27;;
33553;SDS011;19885;42.208;24.952;2022-12-16T06:31:05;28.97;;;16.00;;
33553;SDS011;19885;42.208;24.952;2022-12-16T06:33:49;28.83;;;17.40;;
33553;SDS011;19885;42.208;24.952;2022-12-16T06:36:33;38.60;;;17.30;;
33553;SDS011;19885;42.208;24.952;2022-12-16T06:39:17;71.17;;;31.67;;
33553;SDS011;19885;42.208;24.952;2022-12-16T06:42:00;60.60;;;29.80;;
33553;SDS011;19885;42.208;24.952;2022-12-16T06:44:44;30.97;;;19.00;;
33553;SDS011;19885;42.208;24.952;2022-12-16T06:47:28;28.00;;;15.87;;
33553;SDS011;19885;42.208;24.952;2022-12-16T06:50:12;29.77;;;16.83;;
33553;SDS011;19885;42.208;24.952;2022-12-16T06:52:56;24.27;;;15.33;;
33553;SDS011;19885;42.208;24.952;2022-12-16T06:55:40;24.73;;;14.90;;
33553;SDS011;19885;42.208;24.952;2022-12-16T06:58:24;27.30;;;16.37;;
33553;SDS011;19885;42.208;24.952;2022-12-16T07:01:08;26.30;;;15.13;;
33553;SDS011;19885;42.208;24.952;2022-12-16T07:04:12;24.30;;;15.07;;
33553;SDS011;19885;42.208;24.952;2022-12-16T07:06:56;24.97;;;14.33;;
33553;SDS011;19885;42.208;24.952;2022-12-16T07:09:40;28.30;;;14.80;;
33553;SDS011;19885;42.208;24.952;2022-12-16T07:12:25;26.73;;;14.37;;
33553;SDS011;19885;42.208;24.952;2022-12-16T07:15:09;23.77;;;14.57;;
33553;SDS011;19885;42.208;24.952;2022-12-16T07:17:53;22.50;;;14.33;;
33553;SDS011;19885;42.208;24.952;2022-12-16T07:20:36;24.63;;;13.30;;
33553;SDS011;19885;42.208;24.952;2022-12-16T07:23:20;19.83;;;13.47;;
33553;SDS011;19885;42.208;24.952;2022-12-16T07:26:04;29.07;;;14.17;;
33553;SDS011;19885;42.208;24.952;2022-12-16T07:28:48;34.67;;;15.40;;
33553;SDS011;19885;42.208;24.952;2022-12-16T07:31:32;24.30;;;14.13;;
33553;SDS011;19885;42.208;24.952;2022-12-16T07:34:16;27.87;;;15.77;;
33553;SDS011;19885;42.208;24.952;2022-12-16T07:37:00;22.53;;;14.00;;
33553;SDS011;19885;42.208;24.952;2022-12-16T07:39:44;26.03;;;15.13;;
33553;SDS011;19885;42.208;24.952;2022-12-16T07:42:28;24.87;;;15.17;;
33553;SDS011;19885;42.208;24.952;2022-12-16T07:45:12;26.03;;;15.03;;
33553;SDS011;19885;42.208;24.952;2022-12-16T07:47:56;30.10;;;15.33;;
33553;SDS011;19885;42.208;24.952;2022-12-16T07:50:40;22.50;;;15.30;;
33553;SDS011;19885;42.208;24.952;2022-12-16T07:53:25;26.83;;;15.20;;
33553;SDS011;19885;42.208;24.952;2022-12-16T07:56:09;28.87;;;16.00;;
33553;SDS011;19885;42.208;24.952;2022-12-16T07:58:53;31.13;;;16.60;;
33553;SDS011;19885;42.208;24.952;2022-12-16T08:01:37;33.07;;;17.30;;
33553;SDS011;19885;42.208;24.952;2022-12-16T08:04:21;33.83;;;17.10;;
33553;SDS011;19885;42.208;24.952;2022-12-16T08:07:05;31.90;;;16.80;;
33553;SDS011;19885;42.208;24.952;2022-12-16T08:09:49;31.43;;;17.47;;
33553;SDS011;19885;42.208;24.952;2022-12-16T08:12:33;34.87;;;17.90;;
33553;SDS011;19885;42.208;24.952;2022-12-16T08:15:17;29.40;;;15.57;;
33553;SDS011;19885;42.208;24.952;2022-12-16T08:18:01;28.37;;;17.13;;
33553;SDS011;19885;42.208;24.952;2022-12-16T08:20:46;30.57;;;16.73;;
33553;SDS011;19885;42.208;24.952;2022-12-16T08:23:30;33.23;;;18.07;;
33553;SDS011;19885;42.208;24.952;2022-12-16T08:26:14;26.73;;;16.30;;
33553;SDS011;19885;42.208;24.952;2022-12-16T08:28:58;29.80;;;15.97;;
33553;SDS011;19885;42.208;24.952;2022-12-16T08:31:42;31.07;;;17.10;;
33553;SDS011;19885;42.208;24.952;2022-12-16T08:34:26;27.83;;;15.07;;
33553;SDS011;19885;42.208;24.952;2022-12-16T08:37:10;26.37;;;15.13;;
33553;SDS011;19885;42.208;24.952;2022-12-16T08:39:54;30.43;;;15.37;;
33553;SDS011;19885;42.208;24.952;2022-12-16T08:42:39;27.43;;;15.53;;
33553;SDS011;19885;42.208;24.952;2022-12-16T08:45:23;27.90;;;15.43;;
33553;SDS011;19885;42.208;24.952;2022-12-16T08:48:08;29.60;;;16.57;;
33553;SDS011;19885;42.208;24.952;2022-12-16T08:50:52;28.13;;;16.47;;
33553;SDS011;19885;42.208;24.952;2022-12-16T08:53:36;28.93;;;17.37;;
33553;SDS011;19885;42.208;24.952;2022-12-16T08:56:20;30.73;;;17.40;;
33553;SDS011;19885;42.208;24.952;2022-12-16T08:59:04;29.43;;;16.50;;
33553;SDS011;19885;42.208;24.952;2022-12-16T09:01:48;31.50;;;15.67;;
33553;SDS011;19885;42.208;24.952;2022-12-16T09:04:32;28.13;;;16.33;;
33553;SDS011;19885;42.208;24.952;2022-12-16T09:07:15;28.40;;;17.17;;
33553;SDS011;19885;42.208;24.952;2022-12-16T09:10:00;30.73;;;17.60;;
33553;SDS011;19885;42.208;24.952;2022-12-16T09:12:44;35.90;;;18.57;;
33553;SDS011;19885;42.208;24.952;2022-12-16T09:15:28;45.23;;;18.47;;
33553;SDS011;19885;42.208;24.952;2022-12-16T09:18:12;35.17;;;19.38;;
33553;SDS011;19885;42.208;24.952;2022-12-16T09:20:56;35.03;;;19.13;;
33553;SDS011;19885;42.208;24.952;2022-12-16T09:23:41;38.33;;;19.73;;
33553;SDS011;19885;42.208;24.952;2022-12-16T09:26:25;33.43;;;18.60;;
33553;SDS011;19885;42.208;24.952;2022-12-16T09:29:09;37.67;;;20.07;;
33553;SDS011;19885;42.208;24.952;2022-12-16T09:31:53;42.33;;;19.50;;
33553;SDS011;19885;42.208;24.952;2022-12-16T09:34:38;38.00;;;18.00;;
33553;SDS011;19885;42.208;24.952;2022-12-16T09:37:22;36.33;;;18.73;;
33553;SDS011;19885;42.208;24.952;2022-12-16T09:40:07;34.33;;;18.77;;
33553;SDS011;19885;42.208;24.952;2022-12-16T09:43:04;41.10;;;19.07;;
33553;SDS011;19885;42.208;24.952;2022-12-16T09:45:57;49.17;;;22.10;;
33553;SDS011;19885;42.208;24.952;2022-12-16T09:49:00;43.07;;;20.90;;
33553;SDS011;19885;42.208;24.952;2022-12-16T09:51:55;40.97;;;19.93;;
33553;SDS011;19885;42.208;24.952;2022-12-16T09:54:42;32.50;;;19.20;;
33553;SDS011;19885;42.208;24.952;2022-12-16T09:57:28;47.43;;;20.23;;
33553;SDS011;19885;42.208;24.952;2022-12-16T10:00:18;40.27;;;20.57;;
33553;SDS011;19885;42.208;24.952;2022-12-16T10:03:07;49.57;;;21.80;;
33553;SDS011;19885;42.208;24.952;2022-12-16T10:08:51;43.60;;;22.93;;
33553;SDS011;19885;42.208;24.952;2022-12-16T10:12:16;51.23;;;26.10;;
33553;SDS011;19885;42.208;24.952;2022-12-16T10:21:46;45.97;;;23.13;;
33553;SDS011;19885;42.208;24.952;2022-12-16T10:24:40;39.63;;;22.10;;
33553;SDS011;19885;42.208;24.952;2022-12-16T10:27:55;40.20;;;22.17;;
33553;SDS011;19885;42.208;24.952;2022-12-16T10:30:45;43.40;;;20.37;;
33553;SDS011;19885;42.208;24.952;2022-12-16T10:33:30;44.40;;;22.50;;
33553;SDS011;19885;42.208;24.952;2022-12-16T10:36:17;40.83;;;20.83;;
33553;SDS011;19885;42.208;24.952;2022-12-16T10:39:39;43.47;;;21.53;;
33553;SDS011;19885;42.208;24.952;2022-12-16T10:42:30;53.00;;;24.73;;
33553;SDS011;19885;42.208;24.952;2022-12-16T10:45:42;45.27;;;23.53;;
33553;SDS011;19885;42.208;24.952;2022-12-16T10:48:29;52.77;;;23.23;;
33553;SDS011;19885;42.208;24.952;2022-12-16T10:51:16;51.97;;;23.97;;
33553;SDS011;19885;42.208;24.952;2022-12-16T10:57:40;55.53;;;26.37;;
33553;SDS011;19885;42.208;24.952;2022-12-16T11:03:34;52.20;;;24.93;;
33553;SDS011;19885;42.208;24.952;2022-12-16T11:06:37;44.93;;;23.20;;
33553;SDS011;19885;42.208;24.952;2022-12-16T11:09:29;49.83;;;23.80;;
33553;SDS011;19885;42.208;24.952;2022-12-16T11:18:16;52.80;;;26.07;;
33553;SDS011;19885;42.208;24.952;2022-12-16T11:21:12;68.83;;;27.67;;
33553;SDS011;19885;42.208;24.952;2022-12-16T11:24:06;67.33;;;27.00;;
33553;SDS011;19885;42.208;24.952;2022-12-16T11:26:57;75.83;;;28.83;;
33553;SDS011;19885;42.208;24.952;2022-12-16T11:29:53;60.63;;;28.70;;
33553;SDS011;19885;42.208;24.952;2022-12-16T11:32:38;56.40;;;27.10;;
33553;SDS011;19885;42.208;24.952;2022-12-16T11:35:26;60.63;;;27.40;;
33553;SDS011;19885;42.208;24.952;2022-12-16T11:38:17;61.17;;;27.50;;
33553;SDS011;19885;42.208;24.952;2022-12-16T11:41:06;60.10;;;27.67;;
33553;SDS011;19885;42.208;24.952;2022-12-16T11:43:53;56.00;;;28.80;;
33553;SDS011;19885;42.208;24.952;2022-12-16T11:46:38;52.97;;;26.20;;
33553;SDS011;19885;42.208;24.952;2022-12-16T11:52:14;57.63;;;29.47;;
33553;SDS011;19885;42.208;24.952;2022-12-16T12:01:13;52.20;;;29.80;;
33553;SDS011;19885;42.208;24.952;2022-12-16T12:04:03;66.07;;;29.93;;
33553;SDS011;19885;42.208;24.952;2022-12-16T12:07:32;65.90;;;30.73;;
33553;SDS011;19885;42.208;24.952;2022-12-16T12:13:14;64.23;;;30.73;;
33553;SDS011;19885;42.208;24.952;2022-12-16T12:22:37;60.80;;;28.63;;
33553;SDS011;19885;42.208;24.952;2022-12-16T12:25:24;55.50;;;27.43;;
33553;SDS011;19885;42.208;24.952;2022-12-16T12:28:22;56.00;;;26.20;;
33553;SDS011;19885;42.208;24.952;2022-12-16T12:31:32;64.13;;;29.30;;
33553;SDS011;19885;42.208;24.952;2022-12-16T12:34:34;56.23;;;26.53;;
33553;SDS011;19885;42.208;24.952;2022-12-16T12:37:57;59.47;;;26.93;;
33553;SDS011;19885;42.208;24.952;2022-12-16T12:41:13;49.30;;;26.80;;
33553;SDS011;19885;42.208;24.952;2022-12-16T12:47:25;50.00;;;26.67;;
33553;SDS011;19885;42.208;24.952;2022-12-16T12:50:13;55.97;;;27.47;;
33553;SDS011;19885;42.208;24.952;2022-12-16T12:53:13;59.27;;;28.07;;
33553;SDS011;19885;42.208;24.952;2022-12-16T12:56:03;49.13;;;25.57;;
33553;SDS011;19885;42.208;24.952;2022-12-16T12:58:57;49.73;;;25.43;;
33553;SDS011;19885;42.208;24.952;2022-12-16T13:01:45;48.87;;;24.63;;
33553;SDS011;19885;42.208;24.952;2022-12-16T13:04:30;59.63;;;26.57;;
33553;SDS011;19885;42.208;24.952;2022-12-16T13:07:16;53.50;;;26.43;;
33553;SDS011;19885;42.208;24.952;2022-12-16T13:10:16;62.13;;;26.47;;
33553;SDS011;19885;42.208;24.952;2022-12-16T13:15:58;55.10;;;24.63;;
33553;SDS011;19885;42.208;24.952;2022-12-16T13:18:42;50.90;;;24.13;;
33553;SDS011;19885;42.208;24.952;2022-12-16T13:27:10;47.73;;;24.17;;
33553;SDS011;19885;42.208;24.952;2022-12-16T13:30:01;49.17;;;26.60;;
33553;SDS011;19885;42.208;24.952;2022-12-16T13:33:03;48.47;;;23.87;;
33553;SDS011;19885;42.208;24.952;2022-12-16T13:35:54;54.63;;;23.33;;
33553;SDS011;19885;42.208;24.952;2022-12-16T13:38:44;59.97;;;27.00;;
33553;SDS011;19885;42.208;24.952;2022-12-16T13:48:15;42.97;;;22.73;;
33553;SDS011;19885;42.208;24.952;2022-12-16T13:50:46;49.80;;;23.83;;
33553;SDS011;19885;42.208;24.952;2022-12-16T13:56:53;44.83;;;23.70;;
33553;SDS011;19885;42.208;24.952;2022-12-16T13:59:36;54.40;;;22.17;;
33553;SDS011;19885;42.208;24.952;2022-12-16T14:02:27;48.67;;;25.77;;
33553;SDS011;19885;42.208;24.952;2022-12-16T14:05:17;59.13;;;26.50;;
33553;SDS011;19885;42.208;24.952;2022-12-16T14:08:05;62.63;;;28.03;;
33553;SDS011;19885;42.208;24.952;2022-12-16T14:11:04;52.13;;;25.70;;
33553;SDS011;19885;42.208;24.952;2022-12-16T14:13:56;66.00;;;31.03;;
33553;SDS011;19885;42.208;24.952;2022-12-16T14:16:54;63.53;;;28.53;;
33553;SDS011;19885;42.208;24.952;2022-12-16T14:22:58;53.43;;;26.53;;
33553;SDS011;19885;42.208;24.952;2022-12-16T14:25:41;69.20;;;30.10;;
33553;SDS011;19885;42.208;24.952;2022-12-16T14:28:27;64.10;;;28.87;;
33553;SDS011;19885;42.208;24.952;2022-12-16T14:34:18;65.30;;;30.70;;
33553;SDS011;19885;42.208;24.952;2022-12-16T14:37:10;72.53;;;28.27;;
33553;SDS011;19885;42.208;24.952;2022-12-16T14:39:54;58.00;;;26.17;;
33553;SDS011;19885;42.208;24.952;2022-12-16T14:42:38;61.53;;;26.87;;
33553;SDS011;19885;42.208;24.952;2022-12-16T14:51:15;50.37;;;26.33;;
33553;SDS011;19885;42.208;24.952;2022-12-16T14:54:14;64.87;;;27.13;;
33553;SDS011;19885;42.208;24.952;2022-12-16T14:56:59;63.43;;;27.23;;
33553;SDS011;19885;42.208;24.952;2022-12-16T14:59:42;71.10;;;27.97;;
33553;SDS011;19885;42.208;24.952;2022-12-16T15:02:28;63.30;;;28.20;;
33553;SDS011;19885;42.208;24.952;2022-12-16T15:05:18;62.33;;;27.53;;
33553;SDS011;19885;42.208;24.952;2022-12-16T15:08:03;71.40;;;28.67;;
33553;SDS011;19885;42.208;24.952;2022-12-16T15:10:48;71.97;;;30.03;;
33553;SDS011;19885;42.208;24.952;2022-12-16T15:13:33;67.33;;;31.37;;
33553;SDS011;19885;42.208;24.952;2022-12-16T15:16:19;84.73;;;34.57;;
33553;SDS011;19885;42.208;24.952;2022-12-16T15:19:26;82.20;;;33.83;;
33553;SDS011;19885;42.208;24.952;2022-12-16T15:22:14;91.37;;;38.60;;
33553;SDS011;19885;42.208;24.952;2022-12-16T15:24:59;86.13;;;37.30;;
33553;SDS011;19885;42.208;24.952;2022-12-16T15:27:51;102.43;;;42.87;;
33553;SDS011;19885;42.208;24.952;2022-12-16T15:33:23;75.60;;;31.57;;
33553;SDS011;19885;42.208;24.952;2022-12-16T15:39:14;66.30;;;27.67;;
33553;SDS011;19885;42.208;24.952;2022-12-16T15:51:18;60.03;;;26.80;;
33553;SDS011;19885;42.208;24.952;2022-12-16T15:54:04;58.40;;;27.37;;
33553;SDS011;19885;42.208;24.952;2022-12-16T15:56:47;67.23;;;28.53;;
33553;SDS011;19885;42.208;24.952;2022-12-16T15:59:33;57.07;;;25.07;;
33553;SDS011;19885;42.208;24.952;2022-12-16T16:05:23;60.00;;;25.10;;
33553;SDS011;19885;42.208;24.952;2022-12-16T16:08:10;57.47;;;24.40;;
33553;SDS011;19885;42.208;24.952;2022-12-16T16:10:54;53.57;;;24.73;;
33553;SDS011;19885;42.208;24.952;2022-12-16T16:13:38;55.03;;;25.20;;
33553;SDS011;19885;42.208;24.952;2022-12-16T16:16:22;59.00;;;23.87;;
33553;SDS011;19885;42.208;24.952;2022-12-16T16:19:14;63.73;;;26.30;;
33553;SDS011;19885;42.208;24.952;2022-12-16T16:22:02;53.37;;;23.33;;
33553;SDS011;19885;42.208;24.952;2022-12-16T16:24:57;52.20;;;24.10;;
33553;SDS011;19885;42.208;24.952;2022-12-16T16:27:41;59.97;;;22.60;;
33553;SDS011;19885;42.208;24.952;2022-12-16T16:30:25;48.53;;;21.87;;
33553;SDS011;19885;42.208;24.952;2022-12-16T16:33:09;58.73;;;23.87;;
33553;SDS011;19885;42.208;24.952;2022-12-16T16:35:53;53.33;;;24.20;;
33553;SDS011;19885;42.208;24.952;2022-12-16T16:38:37;49.77;;;22.03;;
33553;SDS011;19885;42.208;24.952;2022-12-16T16:41:21;58.47;;;24.90;;
33553;SDS011;19885;42.208;24.952;2022-12-16T16:44:05;58.50;;;25.93;;
33553;SDS011;19885;42.208;24.952;2022-12-16T16:46:49;47.83;;;24.07;;
33553;SDS011;19885;42.208;24.952;2022-12-16T16:49:37;52.90;;;24.67;;
33553;SDS011;19885;42.208;24.952;2022-12-16T16:52:24;54.27;;;27.30;;
33553;SDS011;19885;42.208;24.952;2022-12-16T16:55:13;51.67;;;25.93;;
33553;SDS011;19885;42.208;24.952;2022-12-16T16:58:00;53.10;;;24.83;;
33553;SDS011;19885;42.208;24.952;2022-12-16T17:00:47;54.13;;;26.67;;
33553;SDS011;19885;42.208;24.952;2022-12-16T17:03:31;68.97;;;29.67;;
33553;SDS011;19885;42.208;24.952;2022-12-16T17:06:15;64.87;;;30.00;;
33553;SDS011;19885;42.208;24.952;2022-12-16T17:08:59;54.03;;;26.67;;
33553;SDS011;19885;42.208;24.952;2022-12-16T17:11:43;61.57;;;27.87;;
33553;SDS011;19885;42.208;24.952;2022-12-16T17:14:27;52.07;;;23.93;;
33553;SDS011;19885;42.208;24.952;2022-12-16T17:17:11;61.23;;;27.87;;
33553;SDS011;19885;42.208;24.952;2022-12-16T17:19:55;55.30;;;25.60;;
33553;SDS011;19885;42.208;24.952;2022-12-16T17:22:38;62.87;;;26.93;;
33553;SDS011;19885;42.208;24.952;2022-12-16T17:25:22;59.83;;;26.90;;
33553;SDS011;19885;42.208;24.952;2022-12-16T17:28:08;58.40;;;26.03;;
33553;SDS011;19885;42.208;24.952;2022-12-16T17:30:52;54.87;;;23.43;;